sensor_id;sensor_type;location;lat;lon;timestamp;temperature;humidity
15083;DHT22;7640;53.116;6.878;2024-03-23T00:54:06;7.40;99.90
15083;DHT22;7640;53.116;6.878;2024-03-23T00:56:33;7.40;99.90
15083;DHT22;7640;53.116;6.878;2024-03-23T00:59:00;7.40;99.90
15083;DHT22;7640;53.116;6.878;2024-03-23T01:01:27;7.30;99.90
15083;DHT22;7640;53.116;6.878;2024-03-23T01:03:54;7.30;99.90
15083;DHT22;7640;53.116;6.878;2024-03-23T01:06:21;7.30;99.90
15083;DHT22;7640;53.116;6.878;2024-03-23T01:08:50;7.20;99.90
15083;DHT22;7640;53.116;6.878;2024-03-23T01:11:16;7.20;99.90
15083;DHT22;7640;53.116;6.878;2024-03-23T01:13:43;7.20;99.90
15083;DHT22;7640;53.116;6.878;2024-03-23T01:16:10;7.10;99.90
15083;DHT22;7640;53.116;6.878;2024-03-23T01:18:38;7.10;99.90
15083;DHT22;7640;53.116;6.878;2024-03-23T01:21:04;7.00;99.90
15083;DHT22;7640;53.116;6.878;2024-03-23T01:23:32;7.00;99.90
15083;DHT22;7640;53.116;6.878;2024-03-23T01:26:00;7.00;99.90
15083;DHT22;7640;53.116;6.878;2024-03-23T01:28:27;6.90;99.90
15083;DHT22;7640;53.116;6.878;2024-03-23T01:30:54;6.90;99.90
15083;DHT22;7640;53.116;6.878;2024-03-23T01:33:22;6.80;99.90
15083;DHT22;7640;53.116;6.878;2024-03-23T01:35:48;6.80;99.90
15083;DHT22;7640;53.116;6.878;2024-03-23T01:38:16;6.80;99.90
15083;DHT22;7640;53.116;6.878;2024-03-23T01:40:42;6.70;99.90
15083;DHT22;7640;53.116;6.878;2024-03-23T01:43:11;6.70;99.90
15083;DHT22;7640;53.116;6.878;2024-03-23T01:45:38;6.70;99.90
15083;DHT22;7640;53.116;6.878;2024-03-23T01:48:07;6.60;99.90
15083;DHT22;7640;53.116;6.878;2024-03-23T01:50:35;6.60;99.90
15083;DHT22;7640;53.116;6.878;2024-03-23T01:53:06;6.60;99.90
15083;DHT22;7640;53.116;6.878;2024-03-23T01:55:33;6.60;99.90
15083;DHT22;7640;53.116;6.878;2024-03-23T01:58:00;6.50;99.90
15083;DHT22;7640;53.116;6.878;2024-03-23T02:00:28;6.50;99.90
15083;DHT22;7640;53.116;6.878;2024-03-23T02:02:56;6.50;99.90
15083;DHT22;7640;53.116;6.878;2024-03-23T02:05:22;6.50;99.90
15083;DHT22;7640;53.116;6.878;2024-03-23T02:07:51;6.50;99.90
15083;DHT22;7640;53.116;6.878;2024-03-23T02:10:17;6.40;99.90
15083;DHT22;7640;53.116;6.878;2024-03-23T02:12:44;6.40;99.90
15083;DHT22;7640;53.116;6.878;2024-03-23T02:15:11;6.40;99.90
15083;DHT22;7640;53.116;6.878;2024-03-23T02:17:40;6.30;99.90
15083;DHT22;7640;53.116;6.878;2024-03-23T02:20:07;6.30;99.90
15083;DHT22;7640;53.116;6.878;2024-03-23T02:22:36;6.30;99.90
15083;DHT22;7640;53.116;6.878;2024-03-23T02:25:06;6.30;99.90
15083;DHT22;7640;53.116;6.878;2024-03-23T02:27:33;6.30;99.90
15083;DHT22;7640;53.116;6.878;2024-03-23T02:30:04;6.30;99.90
15083;DHT22;7640;53.116;6.878;2024-03-23T02:32:32;6.20;99.90
15083;DHT22;7640;53.116;6.878;2024-03-23T02:34:59;6.20;99.90
15083;DHT22;7640;53.116;6.878;2024-03-23T02:37:26;6.20;99.90
15083;DHT22;7640;53.116;6.878;2024-03-23T02:39:53;6.20;99.90
15083;DHT22;7640;53.116;6.878;2024-03-23T02:42:22;6.20;99.90
15083;DHT22;7640;53.116;6.878;2024-03-23T02:44:48;6.10;99.90
15083;DHT22;7640;53.116;6.878;2024-03-23T02:47:16;6.10;99.90
15083;DHT22;7640;53.116;6.878;2024-03-23T02:49:42;6.10;99.90
15083;DHT22;7640;53.116;6.878;2024-03-23T02:52:10;6.10;99.90
15083;DHT22;7640;53.116;6.878;2024-03-23T02:54:36;6.10;99.90
15083;DHT22;7640;53.116;6.878;2024-03-23T02:57:04;6.10;99.90
15083;DHT22;7640;53.116;6.878;2024-03-23T02:59:32;6.00;99.90
15083;DHT22;7640;53.116;6.878;2024-03-23T03:02:00;6.00;99.90
15083;DHT22;7640;53.116;6.878;2024-03-23T03:04:27;6.00;99.90
15083;DHT22;7640;53.116;6.878;2024-03-23T03:06:55;6.00;99.90
15083;DHT22;7640;53.116;6.878;2024-03-23T03:09:21;6.00;99.90
15083;DHT22;7640;53.116;6.878;2024-03-23T03:11:49;6.00;99.90
15083;DHT22;7640;53.116;6.878;2024-03-23T03:14:15;6.00;99.90
15083;DHT22;7640;53.116;6.878;2024-03-23T03:16:44;5.90;99.90
15083;DHT22;7640;53.116;6.878;2024-03-23T03:19:10;5.90;99.90
15083;DHT22;7640;53.116;6.878;2024-03-23T03:21:38;5.90;99.90
15083;DHT22;7640;53.116;6.878;2024-03-23T03:24:06;5.90;99.90
15083;DHT22;7640;53.116;6.878;2024-03-23T03:26:34;5.90;99.90
15083;DHT22;7640;53.116;6.878;2024-03-23T03:29:01;5.90;99.90
15083;DHT22;7640;53.116;6.878;2024-03-23T03:31:29;5.90;99.90
15083;DHT22;7640;53.116;6.878;2024-03-23T03:33:57;5.90;99.90
15083;DHT22;7640;53.116;6.878;2024-03-23T03:36:24;5.90;99.90
15083;DHT22;7640;53.116;6.878;2024-03-23T03:38:51;5.80;99.90
15083;DHT22;7640;53.116;6.878;2024-03-23T03:41:18;5.80;99.90
15083;DHT22;7640;53.116;6.878;2024-03-23T03:43:45;5.80;99.90
15083;DHT22;7640;53.116;6.878;2024-03-23T03:46:12;5.80;99.90
15083;DHT22;7640;53.116;6.878;2024-03-23T03:48:39;5.70;99.90
15083;DHT22;7640;53.116;6.878;2024-03-23T03:51:08;5.70;99.90
15083;DHT22;7640;53.116;6.878;2024-03-23T03:53:34;5.70;99.90
15083;DHT22;7640;53.116;6.878;2024-03-23T03:56:02;5.70;99.90
15083;DHT22;7640;53.116;6.878;2024-03-23T03:58:29;5.70;99.90
15083;DHT22;7640;53.116;6.878;2024-03-23T04:00:57;5.70;99.90
15083;DHT22;7640;53.116;6.878;2024-03-23T04:03:23;5.60;99.90
15083;DHT22;7640;53.116;6.878;2024-03-23T04:05:51;5.60;99.90
15083;DHT22;7640;53.116;6.878;2024-03-23T04:08:20;5.60;99.90
15083;DHT22;7640;53.116;6.878;2024-03-23T04:10:48;5.60;99.90
15083;DHT22;7640;53.116;6.878;2024-03-23T04:13:14;5.60;99.90
15083;DHT22;7640;53.116;6.878;2024-03-23T04:15:42;5.60;99.90
15083;DHT22;7640;53.116;6.878;2024-03-23T04:18:09;5.50;99.90
15083;DHT22;7640;53.116;6.878;2024-03-23T04:20:36;5.50;99.90
15083;DHT22;7640;53.116;6.878;2024-03-23T04:23:03;5.50;99.90
15083;DHT22;7640;53.116;6.878;2024-03-23T04:25:32;5.50;99.90
15083;DHT22;7640;53.116;6.878;2024-03-23T04:27:58;5.50;99.90
15083;DHT22;7640;53.116;6.878;2024-03-23T04:30:26;5.50;99.90
15083;DHT22;7640;53.116;6.878;2024-03-23T04:32:55;5.50;99.90
15083;DHT22;7640;53.116;6.878;2024-03-23T04:35:22;5.50;99.90
15083;DHT22;7640;53.116;6.878;2024-03-23T04:37:51;5.40;99.90
15083;DHT22;7640;53.116;6.878;2024-03-23T04:40:19;5.40;99.90
15083;DHT22;7640;53.116;6.878;2024-03-23T04:42:47;5.50;99.90
15083;DHT22;7640;53.116;6.878;2024-03-23T04:45:15;5.50;99.90
15083;DHT22;7640;53.116;6.878;2024-03-23T04:47:42;5.40;99.90
15083;DHT22;7640;53.116;6.878;2024-03-23T04:50:10;5.40;99.90
15083;DHT22;7640;53.116;6.878;2024-03-23T04:52:37;5.40;99.90
15083;DHT22;7640;53.116;6.878;2024-03-23T04:55:05;5.40;99.90
15083;DHT22;7640;53.116;6.878;2024-03-23T04:57:33;5.40;99.90
15083;DHT22;7640;53.116;6.878;2024-03-23T05:00:01;5.40;99.90
15083;DHT22;7640;53.116;6.878;2024-03-23T05:02:30;5.40;99.90
15083;DHT22;7640;53.116;6.878;2024-03-23T05:04:59;5.40;99.90
15083;DHT22;7640;53.116;6.878;2024-03-23T05:07:26;5.40;99.90
15083;DHT22;7640;53.116;6.878;2024-03-23T05:09:53;5.30;99.90
15083;DHT22;7640;53.116;6.878;2024-03-23T05:12:20;5.30;99.90
15083;DHT22;7640;53.116;6.878;2024-03-23T05:14:48;5.30;99.90
15083;DHT22;7640;53.116;6.878;2024-03-23T05:17:17;5.40;99.90
15083;DHT22;7640;53.116;6.878;2024-03-23T05:19:45;5.30;99.90
15083;DHT22;7640;53.116;6.878;2024-03-23T05:22:11;5.30;99.90
15083;DHT22;7640;53.116;6.878;2024-03-23T05:24:39;5.30;99.90
15083;DHT22;7640;53.116;6.878;2024-03-23T05:27:06;5.30;99.90
15083;DHT22;7640;53.116;6.878;2024-03-23T05:29:33;5.30;99.90
15083;DHT22;7640;53.116;6.878;2024-03-23T05:32:00;5.30;99.90
15083;DHT22;7640;53.116;6.878;2024-03-23T05:34:29;5.30;99.90
15083;DHT22;7640;53.116;6.878;2024-03-23T05:36:56;5.30;99.90
15083;DHT22;7640;53.116;6.878;2024-03-23T05:39:23;5.30;99.90
15083;DHT22;7640;53.116;6.878;2024-03-23T05:41:50;5.40;99.90
15083;DHT22;7640;53.116;6.878;2024-03-23T05:44:18;5.30;99.90
15083;DHT22;7640;53.116;6.878;2024-03-23T05:46:45;5.30;99.90
15083;DHT22;7640;53.116;6.878;2024-03-23T05:49:15;5.30;99.90
15083;DHT22;7640;53.116;6.878;2024-03-23T05:51:44;5.30;99.90
15083;DHT22;7640;53.116;6.878;2024-03-23T05:54:12;5.30;99.90
15083;DHT22;7640;53.116;6.878;2024-03-23T05:56:39;5.30;99.90
15083;DHT22;7640;53.116;6.878;2024-03-23T05:59:06;5.30;99.90
15083;DHT22;7640;53.116;6.878;2024-03-23T06:01:33;5.30;99.90
15083;DHT22;7640;53.116;6.878;2024-03-23T06:04:01;5.30;99.90
15083;DHT22;7640;53.116;6.878;2024-03-23T06:06:27;5.30;99.90
15083;DHT22;7640;53.116;6.878;2024-03-23T06:08:58;5.40;99.90
15083;DHT22;7640;53.116;6.878;2024-03-23T06:11:24;5.40;99.90
15083;DHT22;7640;53.116;6.878;2024-03-23T06:13:53;5.40;99.90
15083;DHT22;7640;53.116;6.878;2024-03-23T06:16:19;5.40;99.90
15083;DHT22;7640;53.116;6.878;2024-03-23T06:18:49;5.50;99.90
15083;DHT22;7640;53.116;6.878;2024-03-23T06:21:16;5.50;99.90
15083;DHT22;7640;53.116;6.878;2024-03-23T06:23:44;5.60;99.90
15083;DHT22;7640;53.116;6.878;2024-03-23T06:26:18;5.70;99.90
15083;DHT22;7640;53.116;6.878;2024-03-23T06:28:45;5.80;99.90
15083;DHT22;7640;53.116;6.878;2024-03-23T06:31:13;5.90;99.90
15083;DHT22;7640;53.116;6.878;2024-03-23T06:33:40;6.10;99.90
15083;DHT22;7640;53.116;6.878;2024-03-23T06:36:09;6.20;99.90
15083;DHT22;7640;53.116;6.878;2024-03-23T06:38:39;6.30;99.90
15083;DHT22;7640;53.116;6.878;2024-03-23T06:41:07;6.40;99.90
15083;DHT22;7640;53.116;6.878;2024-03-23T06:43:35;6.40;99.90
15083;DHT22;7640;53.116;6.878;2024-03-23T06:46:04;6.30;99.90
15083;DHT22;7640;53.116;6.878;2024-03-23T06:48:30;6.30;99.90
15083;DHT22;7640;53.116;6.878;2024-03-23T06:50:58;6.20;99.90
15083;DHT22;7640;53.116;6.878;2024-03-23T06:53:25;6.20;99.90
15083;DHT22;7640;53.116;6.878;2024-03-23T06:55:53;6.10;99.90
15083;DHT22;7640;53.116;6.878;2024-03-23T06:58:20;6.20;99.90
15083;DHT22;7640;53.116;6.878;2024-03-23T07:00:49;6.10;99.90
15083;DHT22;7640;53.116;6.878;2024-03-23T07:03:17;6.20;99.90
15083;DHT22;7640;53.116;6.878;2024-03-23T07:05:44;6.40;99.90
15083;DHT22;7640;53.116;6.878;2024-03-23T07:08:12;6.50;99.90
15083;DHT22;7640;53.116;6.878;2024-03-23T07:10:45;6.50;99.90
15083;DHT22;7640;53.116;6.878;2024-03-23T07:13:12;6.50;99.90
15083;DHT22;7640;53.116;6.878;2024-03-23T07:15:43;6.50;99.90
15083;DHT22;7640;53.116;6.878;2024-03-23T07:18:11;6.50;99.90
15083;DHT22;7640;53.116;6.878;2024-03-23T07:20:38;6.40;99.90
15083;DHT22;7640;53.116;6.878;2024-03-23T07:23:05;6.40;99.90
15083;DHT22;7640;53.116;6.878;2024-03-23T07:25:33;6.40;99.90
15083;DHT22;7640;53.116;6.878;2024-03-23T07:27:59;6.40;99.90
15083;DHT22;7640;53.116;6.878;2024-03-23T07:30:27;6.40;99.90
15083;DHT22;7640;53.116;6.878;2024-03-23T07:32:53;6.60;99.90
15083;DHT22;7640;53.116;6.878;2024-03-23T07:35:22;6.70;99.90
15083;DHT22;7640;53.116;6.878;2024-03-23T07:37:49;6.80;99.90
15083;DHT22;7640;53.116;6.878;2024-03-23T07:40:16;6.80;99.90
15083;DHT22;7640;53.116;6.878;2024-03-23T07:42:43;6.80;99.90
15083;DHT22;7640;53.116;6.878;2024-03-23T07:45:10;6.90;99.90
15083;DHT22;7640;53.116;6.878;2024-03-23T07:47:37;6.90;99.90
15083;DHT22;7640;53.116;6.878;2024-03-23T07:50:06;7.00;99.90
15083;DHT22;7640;53.116;6.878;2024-03-23T07:52:35;7.00;99.90
15083;DHT22;7640;53.116;6.878;2024-03-23T07:55:03;7.10;99.90
15083;DHT22;7640;53.116;6.878;2024-03-23T07:57:30;7.20;99.90
15083;DHT22;7640;53.116;6.878;2024-03-23T07:59:58;7.20;99.90
15083;DHT22;7640;53.116;6.878;2024-03-23T08:02:25;7.30;99.90
15083;DHT22;7640;53.116;6.878;2024-03-23T08:04:52;7.40;99.90
15083;DHT22;7640;53.116;6.878;2024-03-23T08:07:19;7.50;99.90
15083;DHT22;7640;53.116;6.878;2024-03-23T08:09:47;7.60;99.90
15083;DHT22;7640;53.116;6.878;2024-03-23T08:12:14;7.70;99.90
15083;DHT22;7640;53.116;6.878;2024-03-23T08:14:41;7.90;99.90
15083;DHT22;7640;53.116;6.878;2024-03-23T08:17:08;8.00;99.90
15083;DHT22;7640;53.116;6.878;2024-03-23T08:19:35;8.10;99.90
15083;DHT22;7640;53.116;6.878;2024-03-23T08:22:03;8.10;99.90
15083;DHT22;7640;53.116;6.878;2024-03-23T08:24:29;8.10;99.90
15083;DHT22;7640;53.116;6.878;2024-03-23T08:26:58;8.00;99.90
15083;DHT22;7640;53.116;6.878;2024-03-23T08:29:25;8.00;99.90
15083;DHT22;7640;53.116;6.878;2024-03-23T08:31:52;7.90;99.90
15083;DHT22;7640;53.116;6.878;2024-03-23T08:34:19;7.90;99.90
15083;DHT22;7640;53.116;6.878;2024-03-23T08:36:46;8.00;99.90
15083;DHT22;7640;53.116;6.878;2024-03-23T08:39:13;8.10;99.90
15083;DHT22;7640;53.116;6.878;2024-03-23T08:41:41;8.20;99.90
15083;DHT22;7640;53.116;6.878;2024-03-23T08:44:13;8.30;99.90
15083;DHT22;7640;53.116;6.878;2024-03-23T08:46:41;8.30;99.90
15083;DHT22;7640;53.116;6.878;2024-03-23T08:49:07;8.40;99.90
15083;DHT22;7640;53.116;6.878;2024-03-23T08:51:35;8.40;99.90
15083;DHT22;7640;53.116;6.878;2024-03-23T08:54:02;8.30;99.90
15083;DHT22;7640;53.116;6.878;2024-03-23T08:56:29;8.20;99.90
15083;DHT22;7640;53.116;6.878;2024-03-23T08:58:56;8.20;99.90
15083;DHT22;7640;53.116;6.878;2024-03-23T09:01:25;8.20;99.90
15083;DHT22;7640;53.116;6.878;2024-03-23T09:03:51;8.30;99.90
15083;DHT22;7640;53.116;6.878;2024-03-23T09:06:19;8.40;99.90
15083;DHT22;7640;53.116;6.878;2024-03-23T09:08:45;8.60;99.90
15083;DHT22;7640;53.116;6.878;2024-03-23T09:11:14;8.90;99.90
15083;DHT22;7640;53.116;6.878;2024-03-23T09:13:41;9.10;99.90
15083;DHT22;7640;53.116;6.878;2024-03-23T09:16:08;9.30;99.90
15083;DHT22;7640;53.116;6.878;2024-03-23T09:18:38;9.40;99.90
15083;DHT22;7640;53.116;6.878;2024-03-23T09:21:11;9.50;99.90
15083;DHT22;7640;53.116;6.878;2024-03-23T09:23:39;9.50;99.90
15083;DHT22;7640;53.116;6.878;2024-03-23T09:26:06;9.60;99.90
15083;DHT22;7640;53.116;6.878;2024-03-23T09:28:33;9.60;99.90
15083;DHT22;7640;53.116;6.878;2024-03-23T09:31:04;9.60;99.90
15083;DHT22;7640;53.116;6.878;2024-03-23T09:33:31;9.70;99.90
15083;DHT22;7640;53.116;6.878;2024-03-23T09:36:03;9.80;99.90
15083;DHT22;7640;53.116;6.878;2024-03-23T09:38:30;10.00;99.90
15083;DHT22;7640;53.116;6.878;2024-03-23T09:40:58;10.00;99.90
15083;DHT22;7640;53.116;6.878;2024-03-23T09:43:25;10.00;99.90
15083;DHT22;7640;53.116;6.878;2024-03-23T09:45:53;10.00;99.90
15083;DHT22;7640;53.116;6.878;2024-03-23T09:48:19;10.00;99.90
15083;DHT22;7640;53.116;6.878;2024-03-23T09:50:47;9.90;99.90
15083;DHT22;7640;53.116;6.878;2024-03-23T09:53:15;9.80;99.90
15083;DHT22;7640;53.116;6.878;2024-03-23T09:55:44;9.70;99.90
15083;DHT22;7640;53.116;6.878;2024-03-23T09:58:13;9.60;99.90
15083;DHT22;7640;53.116;6.878;2024-03-23T10:00:41;9.50;99.90
15083;DHT22;7640;53.116;6.878;2024-03-23T10:03:07;9.50;99.90
15083;DHT22;7640;53.116;6.878;2024-03-23T10:05:37;9.50;99.90
15083;DHT22;7640;53.116;6.878;2024-03-23T10:08:18;9.60;99.90
15083;DHT22;7640;53.116;6.878;2024-03-23T10:10:46;9.70;99.90
15083;DHT22;7640;53.116;6.878;2024-03-23T10:13:24;9.70;99.90
15083;DHT22;7640;53.116;6.878;2024-03-23T10:15:57;9.50;99.90
15083;DHT22;7640;53.116;6.878;2024-03-23T10:18:25;9.20;99.90
15083;DHT22;7640;53.116;6.878;2024-03-23T10:21:07;8.90;99.90
15083;DHT22;7640;53.116;6.878;2024-03-23T10:23:39;8.50;99.90
15083;DHT22;7640;53.116;6.878;2024-03-23T10:26:14;8.30;99.90
15083;DHT22;7640;53.116;6.878;2024-03-23T10:28:55;8.00;99.90
15083;DHT22;7640;53.116;6.878;2024-03-23T10:31:27;7.90;99.90
15083;DHT22;7640;53.116;6.878;2024-03-23T10:33:53;7.80;99.90
15083;DHT22;7640;53.116;6.878;2024-03-23T10:36:22;7.80;99.90
15083;DHT22;7640;53.116;6.878;2024-03-23T10:38:51;7.70;99.90
15083;DHT22;7640;53.116;6.878;2024-03-23T10:41:19;7.80;99.90
15083;DHT22;7640;53.116;6.878;2024-03-23T10:43:46;7.70;99.90
15083;DHT22;7640;53.116;6.878;2024-03-23T10:46:15;7.80;99.90
15083;DHT22;7640;53.116;6.878;2024-03-23T10:48:43;7.90;99.90
15083;DHT22;7640;53.116;6.878;2024-03-23T10:51:12;8.10;99.90
15083;DHT22;7640;53.116;6.878;2024-03-23T10:53:39;8.30;99.90
15083;DHT22;7640;53.116;6.878;2024-03-23T10:56:09;8.60;99.90
15083;DHT22;7640;53.116;6.878;2024-03-23T10:58:39;8.90;99.90
15083;DHT22;7640;53.116;6.878;2024-03-23T11:01:10;9.20;99.90
15083;DHT22;7640;53.116;6.878;2024-03-23T11:03:38;9.50;99.90
15083;DHT22;7640;53.116;6.878;2024-03-23T11:06:06;9.80;99.90
15083;DHT22;7640;53.116;6.878;2024-03-23T11:08:39;9.90;99.90
15083;DHT22;7640;53.116;6.878;2024-03-23T11:11:17;10.10;99.90
15083;DHT22;7640;53.116;6.878;2024-03-23T11:13:44;10.30;99.90
15083;DHT22;7640;53.116;6.878;2024-03-23T11:16:16;10.50;99.90
15083;DHT22;7640;53.116;6.878;2024-03-23T11:18:43;10.40;99.90
15083;DHT22;7640;53.116;6.878;2024-03-23T11:21:51;10.00;99.90
15083;DHT22;7640;53.116;6.878;2024-03-23T11:24:18;9.80;99.90
15083;DHT22;7640;53.116;6.878;2024-03-23T11:26:48;9.40;99.90
15083;DHT22;7640;53.116;6.878;2024-03-23T11:29:16;9.00;99.90
15083;DHT22;7640;53.116;6.878;2024-03-23T11:31:47;8.70;99.90
15083;DHT22;7640;53.116;6.878;2024-03-23T11:34:15;8.50;99.90
15083;DHT22;7640;53.116;6.878;2024-03-23T11:36:43;8.50;99.90
15083;DHT22;7640;53.116;6.878;2024-03-23T11:39:13;8.50;99.90
15083;DHT22;7640;53.116;6.878;2024-03-23T11:41:50;8.50;99.90
15083;DHT22;7640;53.116;6.878;2024-03-23T11:44:18;8.60;99.90
15083;DHT22;7640;53.116;6.878;2024-03-23T11:46:47;8.60;99.90
15083;DHT22;7640;53.116;6.878;2024-03-23T11:49:23;8.70;99.90
15083;DHT22;7640;53.116;6.878;2024-03-23T11:51:52;8.70;99.90
15083;DHT22;7640;53.116;6.878;2024-03-23T11:54:20;8.70;99.90
15083;DHT22;7640;53.116;6.878;2024-03-23T11:56:56;8.70;99.90
15083;DHT22;7640;53.116;6.878;2024-03-23T11:59:33;8.80;99.90
15083;DHT22;7640;53.116;6.878;2024-03-23T12:02:07;8.80;99.90
15083;DHT22;7640;53.116;6.878;2024-03-23T12:04:33;8.90;99.90
15083;DHT22;7640;53.116;6.878;2024-03-23T12:07:12;8.90;99.90
15083;DHT22;7640;53.116;6.878;2024-03-23T12:09:43;9.00;99.90
15083;DHT22;7640;53.116;6.878;2024-03-23T12:12:14;9.00;99.90
15083;DHT22;7640;53.116;6.878;2024-03-23T12:14:43;9.00;99.90
15083;DHT22;7640;53.116;6.878;2024-03-23T12:17:11;9.10;99.90
15083;DHT22;7640;53.116;6.878;2024-03-23T12:19:38;9.20;99.90
15083;DHT22;7640;53.116;6.878;2024-03-23T12:22:06;9.30;99.90
15083;DHT22;7640;53.116;6.878;2024-03-23T12:24:34;9.30;99.90
15083;DHT22;7640;53.116;6.878;2024-03-23T12:27:02;9.00;99.90
15083;DHT22;7640;53.116;6.878;2024-03-23T12:29:32;8.70;99.90
15083;DHT22;7640;53.116;6.878;2024-03-23T12:31:59;8.50;99.90
15083;DHT22;7640;53.116;6.878;2024-03-23T12:34:28;8.20;99.90
15083;DHT22;7640;53.116;6.878;2024-03-23T12:36:54;8.10;99.90
15083;DHT22;7640;53.116;6.878;2024-03-23T12:39:22;8.00;99.90
15083;DHT22;7640;53.116;6.878;2024-03-23T12:41:49;8.10;99.90
15083;DHT22;7640;53.116;6.878;2024-03-23T12:44:18;8.10;99.90
15083;DHT22;7640;53.116;6.878;2024-03-23T12:46:46;8.20;99.90
15083;DHT22;7640;53.116;6.878;2024-03-23T12:49:14;8.40;99.90
15083;DHT22;7640;53.116;6.878;2024-03-23T12:51:48;8.50;99.90
15083;DHT22;7640;53.116;6.878;2024-03-23T12:54:20;8.50;99.90
15083;DHT22;7640;53.116;6.878;2024-03-23T12:56:47;8.50;99.90
15083;DHT22;7640;53.116;6.878;2024-03-23T12:59:14;8.40;99.90
15083;DHT22;7640;53.116;6.878;2024-03-23T13:01:42;8.30;99.90
15083;DHT22;7640;53.116;6.878;2024-03-23T13:04:10;8.30;99.90
15083;DHT22;7640;53.116;6.878;2024-03-23T13:06:38;8.60;99.90
15083;DHT22;7640;53.116;6.878;2024-03-23T13:09:07;8.80;99.90
15083;DHT22;7640;53.116;6.878;2024-03-23T13:11:35;8.90;99.90
15083;DHT22;7640;53.116;6.878;2024-03-23T13:14:02;8.70;99.90
15083;DHT22;7640;53.116;6.878;2024-03-23T13:16:31;8.60;99.90
15083;DHT22;7640;53.116;6.878;2024-03-23T13:18:58;8.70;99.90
15083;DHT22;7640;53.116;6.878;2024-03-23T13:21:29;8.80;99.90
15083;DHT22;7640;53.116;6.878;2024-03-23T13:23:55;9.10;99.90
15083;DHT22;7640;53.116;6.878;2024-03-23T13:26:23;9.40;99.90
15083;DHT22;7640;53.116;6.878;2024-03-23T13:28:49;9.50;99.90
15083;DHT22;7640;53.116;6.878;2024-03-23T13:31:16;9.50;99.90
15083;DHT22;7640;53.116;6.878;2024-03-23T13:33:43;9.60;99.90
15083;DHT22;7640;53.116;6.878;2024-03-23T13:36:10;9.80;99.90
15083;DHT22;7640;53.116;6.878;2024-03-23T13:38:38;10.10;99.90
15083;DHT22;7640;53.116;6.878;2024-03-23T13:41:06;10.50;99.90
15083;DHT22;7640;53.116;6.878;2024-03-23T13:43:34;10.80;99.90
15083;DHT22;7640;53.116;6.878;2024-03-23T13:46:02;11.00;99.90
15083;DHT22;7640;53.116;6.878;2024-03-23T13:48:30;11.30;99.90
15083;DHT22;7640;53.116;6.878;2024-03-23T13:50:57;11.50;99.90
15083;DHT22;7640;53.116;6.878;2024-03-23T13:53:24;11.80;99.90
15083;DHT22;7640;53.116;6.878;2024-03-23T13:55:53;12.10;99.90
15083;DHT22;7640;53.116;6.878;2024-03-23T13:58:20;12.30;99.90
15083;DHT22;7640;53.116;6.878;2024-03-23T14:00:49;12.30;99.90
15083;DHT22;7640;53.116;6.878;2024-03-23T14:03:15;12.50;99.90
15083;DHT22;7640;53.116;6.878;2024-03-23T14:05:44;12.60;99.90
15083;DHT22;7640;53.116;6.878;2024-03-23T14:08:11;12.50;99.90
15083;DHT22;7640;53.116;6.878;2024-03-23T14:10:41;12.20;99.90
15083;DHT22;7640;53.116;6.878;2024-03-23T14:13:09;11.90;99.90
15083;DHT22;7640;53.116;6.878;2024-03-23T14:15:36;11.40;99.90
15083;DHT22;7640;53.116;6.878;2024-03-23T14:18:04;10.40;99.90
15083;DHT22;7640;53.116;6.878;2024-03-23T14:20:32;9.50;99.90
15083;DHT22;7640;53.116;6.878;2024-03-23T14:22:58;8.80;99.90
15083;DHT22;7640;53.116;6.878;2024-03-23T14:25:25;8.40;99.90
15083;DHT22;7640;53.116;6.878;2024-03-23T14:27:55;8.20;99.90
15083;DHT22;7640;53.116;6.878;2024-03-23T14:30:25;8.10;99.90
15083;DHT22;7640;53.116;6.878;2024-03-23T14:32:51;8.30;99.90
15083;DHT22;7640;53.116;6.878;2024-03-23T14:35:19;8.80;99.90
15083;DHT22;7640;53.116;6.878;2024-03-23T14:37:46;9.30;99.90
15083;DHT22;7640;53.116;6.878;2024-03-23T14:40:14;9.70;99.90
15083;DHT22;7640;53.116;6.878;2024-03-23T14:42:40;9.80;99.90
15083;DHT22;7640;53.116;6.878;2024-03-23T14:45:08;9.80;99.90
15083;DHT22;7640;53.116;6.878;2024-03-23T14:47:36;9.80;99.90
15083;DHT22;7640;53.116;6.878;2024-03-23T14:50:05;9.70;99.90
15083;DHT22;7640;53.116;6.878;2024-03-23T14:52:34;9.80;99.90
15083;DHT22;7640;53.116;6.878;2024-03-23T14:55:02;10.10;99.90
15083;DHT22;7640;53.116;6.878;2024-03-23T14:57:29;10.40;99.90
15083;DHT22;7640;53.116;6.878;2024-03-23T14:59:56;10.80;99.90
15083;DHT22;7640;53.116;6.878;2024-03-23T15:02:25;11.10;99.90
15083;DHT22;7640;53.116;6.878;2024-03-23T15:04:56;11.40;99.90
15083;DHT22;7640;53.116;6.878;2024-03-23T15:07:22;11.90;99.90
15083;DHT22;7640;53.116;6.878;2024-03-23T15:09:48;12.20;99.90
15083;DHT22;7640;53.116;6.878;2024-03-23T15:12:16;12.30;99.90
15083;DHT22;7640;53.116;6.878;2024-03-23T15:14:42;12.50;99.90
15083;DHT22;7640;53.116;6.878;2024-03-23T15:17:10;12.80;99.90
15083;DHT22;7640;53.116;6.878;2024-03-23T15:19:36;12.80;99.90
15083;DHT22;7640;53.116;6.878;2024-03-23T15:22:05;12.40;99.90
15083;DHT22;7640;53.116;6.878;2024-03-23T15:24:32;11.90;99.90
15083;DHT22;7640;53.116;6.878;2024-03-23T15:27:02;11.10;99.90
15083;DHT22;7640;53.116;6.878;2024-03-23T15:29:28;10.40;99.90
15083;DHT22;7640;53.116;6.878;2024-03-23T15:31:56;10.20;99.90
15083;DHT22;7640;53.116;6.878;2024-03-23T15:34:23;10.40;99.90
15083;DHT22;7640;53.116;6.878;2024-03-23T15:36:51;10.80;99.90
15083;DHT22;7640;53.116;6.878;2024-03-23T15:39:19;11.10;99.90
15083;DHT22;7640;53.116;6.878;2024-03-23T15:41:48;11.40;99.90
15083;DHT22;7640;53.116;6.878;2024-03-23T15:44:15;11.70;99.90
15083;DHT22;7640;53.116;6.878;2024-03-23T15:46:43;11.90;99.90
15083;DHT22;7640;53.116;6.878;2024-03-23T15:49:09;12.10;99.90
15083;DHT22;7640;53.116;6.878;2024-03-23T15:51:37;12.40;99.90
15083;DHT22;7640;53.116;6.878;2024-03-23T15:54:06;12.70;99.90
15083;DHT22;7640;53.116;6.878;2024-03-23T15:56:35;12.80;99.90
15083;DHT22;7640;53.116;6.878;2024-03-23T15:59:02;12.30;99.90
15083;DHT22;7640;53.116;6.878;2024-03-23T16:01:32;12.20;99.90
15083;DHT22;7640;53.116;6.878;2024-03-23T16:04:00;12.10;99.90
15083;DHT22;7640;53.116;6.878;2024-03-23T16:06:28;11.90;99.90
15083;DHT22;7640;53.116;6.878;2024-03-23T16:08:54;12.20;99.90
15083;DHT22;7640;53.116;6.878;2024-03-23T16:11:22;12.40;99.90
15083;DHT22;7640;53.116;6.878;2024-03-23T16:13:50;12.60;99.90
15083;DHT22;7640;53.116;6.878;2024-03-23T16:16:18;12.90;99.90
15083;DHT22;7640;53.116;6.878;2024-03-23T16:18:48;13.20;99.90
15083;DHT22;7640;53.116;6.878;2024-03-23T16:21:16;13.30;99.90
15083;DHT22;7640;53.116;6.878;2024-03-23T16:23:44;13.30;99.90
15083;DHT22;7640;53.116;6.878;2024-03-23T16:26:13;13.30;99.90
15083;DHT22;7640;53.116;6.878;2024-03-23T16:28:43;13.40;99.90
15083;DHT22;7640;53.116;6.878;2024-03-23T16:31:13;13.40;99.90
15083;DHT22;7640;53.116;6.878;2024-03-23T16:33:40;13.40;99.90
15083;DHT22;7640;53.116;6.878;2024-03-23T16:36:08;13.70;99.90
15083;DHT22;7640;53.116;6.878;2024-03-23T16:38:37;14.00;99.90
15083;DHT22;7640;53.116;6.878;2024-03-23T16:41:07;14.10;99.90
15083;DHT22;7640;53.116;6.878;2024-03-23T16:43:35;14.10;99.90
15083;DHT22;7640;53.116;6.878;2024-03-23T16:46:06;14.20;99.90
15083;DHT22;7640;53.116;6.878;2024-03-23T16:48:38;14.10;99.90
15083;DHT22;7640;53.116;6.878;2024-03-23T16:51:08;14.00;99.90
15083;DHT22;7640;53.116;6.878;2024-03-23T16:53:35;14.00;99.90
15083;DHT22;7640;53.116;6.878;2024-03-23T16:56:06;14.00;99.90
15083;DHT22;7640;53.116;6.878;2024-03-23T16:58:35;14.00;99.90